createdAt,value
2023-03-30T00:00:47.715Z,21.30
2023-03-30T00:03:23.198Z,23.80
2023-03-30T00:05:57.143Z,22.30
2023-03-30T00:08:30.682Z,23.80
2023-03-30T00:11:07.100Z,21.70
2023-03-30T00:13:41.648Z,22.90
2023-03-30T00:16:16.084Z,20.10
2023-03-30T00:18:49.214Z,15.20
2023-03-30T00:21:22.178Z,15.60
2023-03-30T00:23:55.115Z,17.40
2023-03-30T00:26:28.855Z,21.10
2023-03-30T00:29:01.566Z,20.50
2023-03-30T00:31:34.413Z,18.30
2023-03-30T00:34:07.155Z,22.40
2023-03-30T00:36:39.971Z,21.60
2023-03-30T00:39:13.283Z,19.10
2023-03-30T00:41:46.443Z,18.60
2023-03-30T00:44:48.923Z,17.70
2023-03-30T00:47:21.824Z,16.70
2023-03-30T00:49:55.194Z,18.00
2023-03-30T00:52:28.355Z,19.00
2023-03-30T00:55:01.791Z,21.10
2023-03-30T00:57:35.109Z,15.40
2023-03-30T01:00:11.052Z,16.10
2023-03-30T01:02:49.146Z,18.10
2023-03-30T01:05:24.385Z,20.60
2023-03-30T01:07:58.433Z,21.70
2023-03-30T01:10:31.183Z,20.70
2023-03-30T01:13:03.842Z,20.20
2023-03-30T01:15:43.126Z,22.50
2023-03-30T01:18:33.637Z,20.20
2023-03-30T01:21:36.167Z,22.80
2023-03-30T01:24:35.362Z,20.70
2023-03-30T01:27:22.473Z,22.30
2023-03-30T01:30:25.673Z,23.20
2023-03-30T01:33:29.833Z,21.60
2023-03-30T01:36:38.217Z,21.30
2023-03-30T01:39:40.621Z,20.40
2023-03-30T01:42:22.164Z,23.40
2023-03-30T01:45:02.492Z,21.10
2023-03-30T01:47:40.063Z,21.60
2023-03-30T01:50:19.365Z,20.60
2023-03-30T01:52:57.581Z,21.50
2023-03-30T01:55:35.805Z,17.80
2023-03-30T01:58:13.922Z,20.30
2023-03-30T02:00:52.122Z,18.10
2023-03-30T02:03:28.734Z,15.90
2023-03-30T02:06:06.553Z,16.70
2023-03-30T02:08:41.544Z,15.90
2023-03-30T02:11:14.642Z,16.00
2023-03-30T02:13:48.234Z,15.10
2023-03-30T02:16:29.087Z,15.60
2023-03-30T02:19:02.475Z,16.30
2023-03-30T02:21:35.781Z,14.40
2023-03-30T02:24:18.074Z,14.50
2023-03-30T02:26:53.276Z,13.80
2023-03-30T02:29:25.723Z,17.10
2023-03-30T02:32:01.865Z,18.00
2023-03-30T02:34:49.665Z,17.40
2023-03-30T02:37:43.993Z,17.10
2023-03-30T02:43:07.493Z,15.70
2023-03-30T02:45:53.113Z,14.10
2023-03-30T02:48:41.732Z,18.60
2023-03-30T02:51:33.604Z,16.60
2023-03-30T02:54:36.152Z,18.60
2023-03-30T02:57:34.944Z,18.40
2023-03-30T03:00:33.283Z,13.00
2023-03-30T03:03:10.965Z,19.10
2023-03-30T03:05:45.779Z,14.40
2023-03-30T03:08:24.118Z,17.70
2023-03-30T03:10:57.306Z,16.80
2023-03-30T03:13:29.998Z,17.40
2023-03-30T03:16:05.006Z,20.10
2023-03-30T03:18:40.265Z,21.50
2023-03-30T03:21:14.408Z,19.70
2023-03-30T03:23:48.673Z,19.90
2023-03-30T03:26:24.562Z,20.50
2023-03-30T03:28:57.637Z,17.90
2023-03-30T03:31:31.033Z,20.70
2023-03-30T03:34:04.630Z,23.40
2023-03-30T03:36:56.424Z,21.50
2023-03-30T03:39:31.783Z,20.30
2023-03-30T03:42:15.433Z,18.30
2023-03-30T03:44:58.768Z,21.20
2023-03-30T03:47:33.617Z,21.70
2023-03-30T03:50:10.183Z,20.40
2023-03-30T03:52:45.795Z,20.10
2023-03-30T03:55:18.734Z,16.80
2023-03-30T03:57:52.445Z,20.30
2023-03-30T04:00:27.254Z,17.30
2023-03-30T04:03:00.385Z,18.10
2023-03-30T04:05:33.837Z,17.90
2023-03-30T04:08:11.129Z,19.60
2023-03-30T04:10:45.704Z,21.60
2023-03-30T04:13:30.668Z,22.00
2023-03-30T04:16:39.690Z,20.30
2023-03-30T04:19:42.381Z,21.60
2023-03-30T04:22:25.883Z,23.00
2023-03-30T04:25:15.419Z,20.70
2023-03-30T04:28:12.168Z,20.20
2023-03-30T04:31:06.281Z,19.60
2023-03-30T04:33:52.008Z,20.70
2023-03-30T04:36:47.782Z,17.30
2023-03-30T04:39:31.116Z,20.20
2023-03-30T04:42:14.477Z,17.50
2023-03-30T04:45:05.865Z,18.50
2023-03-30T04:48:05.401Z,21.70
2023-03-30T04:51:10.256Z,18.90
2023-03-30T04:54:09.272Z,22.10
2023-03-30T04:57:14.720Z,20.40
2023-03-30T04:59:54.316Z,24.70
2023-03-30T05:02:48.111Z,27.60
2023-03-30T05:05:41.089Z,22.80
2023-03-30T05:08:21.578Z,21.60
2023-03-30T05:11:29.441Z,21.40
2023-03-30T05:14:25.656Z,21.70
2023-03-30T05:17:25.202Z,21.40
2023-03-30T05:20:18.881Z,22.30
2023-03-30T05:23:10.899Z,20.40
2023-03-30T05:26:04.965Z,18.80
2023-03-30T05:28:37.929Z,20.30
2023-03-30T05:31:30.798Z,19.90
2023-03-30T05:34:26.781Z,16.90
2023-03-30T05:37:05.904Z,19.90
2023-03-30T05:39:41.777Z,19.30
2023-03-30T05:42:34.759Z,16.40
2023-03-30T05:45:29.440Z,16.20
2023-03-30T05:48:08.417Z,18.40
2023-03-30T05:50:52.476Z,17.30
2023-03-30T05:53:34.910Z,18.40
2023-03-30T05:56:44.057Z,18.20
2023-03-30T05:59:43.154Z,16.80
2023-03-30T06:02:49.567Z,20.80
2023-03-30T06:05:24.949Z,16.50
2023-03-30T06:08:01.653Z,15.30
2023-03-30T06:10:37.045Z,17.70
2023-03-30T06:13:14.493Z,17.80
2023-03-30T06:15:53.558Z,17.60
2023-03-30T06:18:29.236Z,19.40
2023-03-30T06:21:15.215Z,18.10
2023-03-30T06:23:57.240Z,14.80
2023-03-30T06:26:33.176Z,15.90
2023-03-30T06:29:06.737Z,15.70
2023-03-30T06:34:30.585Z,14.60
2023-03-30T06:37:03.867Z,11.90
2023-03-30T06:39:38.218Z,15.60
2023-03-30T06:42:12.303Z,15.20
2023-03-30T06:45:16.976Z,11.50
2023-03-30T06:47:49.568Z,12.70
2023-03-30T06:50:23.683Z,13.70
2023-03-30T06:52:56.500Z,14.40
2023-03-30T06:55:29.895Z,14.10
2023-03-30T06:58:03.492Z,11.30
2023-03-30T07:00:36.382Z,12.70
2023-03-30T07:03:30.332Z,12.30
2023-03-30T07:06:12.971Z,10.30
2023-03-30T07:08:46.145Z,11.60
2023-03-30T07:11:22.916Z,12.90
2023-03-30T07:13:58.706Z,13.20
2023-03-30T07:16:32.347Z,13.30
2023-03-30T07:19:07.017Z,13.20
2023-03-30T07:21:40.336Z,13.90
2023-03-30T07:24:13.811Z,14.60
2023-03-30T07:26:46.862Z,11.50
2023-03-30T07:29:19.561Z,14.60
2023-03-30T07:31:57.229Z,14.50
2023-03-30T07:34:29.913Z,11.80
2023-03-30T07:37:03.954Z,14.30
2023-03-30T07:39:38.249Z,11.50
2023-03-30T07:42:13.898Z,12.50
2023-03-30T07:44:46.914Z,10.10
2023-03-30T07:47:22.358Z,10.20
2023-03-30T07:49:56.189Z,9.00
2023-03-30T07:52:30.124Z,10.80
2023-03-30T07:55:08.054Z,12.00
2023-03-30T07:57:54.623Z,10.40
2023-03-30T08:00:28.320Z,9.00
2023-03-30T08:03:39.957Z,9.60
2023-03-30T08:06:13.672Z,7.40
2023-03-30T08:08:49.896Z,8.20
2023-03-30T08:11:23.148Z,12.40
2023-03-30T08:13:56.324Z,8.00
2023-03-30T08:16:29.402Z,8.60
2023-03-30T08:19:02.425Z,10.70
2023-03-30T08:21:37.514Z,8.10
2023-03-30T08:24:11.661Z,8.80
2023-03-30T08:26:45.585Z,9.30
2023-03-30T08:29:19.105Z,8.20
2023-03-30T08:34:23.466Z,8.70
2023-03-30T08:36:58.456Z,12.00
2023-03-30T08:39:33.690Z,8.40
2023-03-30T08:42:41.204Z,9.40
2023-03-30T08:45:15.737Z,8.80
2023-03-30T08:47:54.974Z,6.40
2023-03-30T08:50:34.513Z,7.70
2023-03-30T08:53:09.635Z,8.80
2023-03-30T08:55:48.678Z,9.80
2023-03-30T08:58:28.824Z,8.50
2023-03-30T09:01:10.552Z,7.60
2023-03-30T09:03:50.611Z,8.20
2023-03-30T09:06:31.278Z,8.50
2023-03-30T09:09:07.404Z,10.60
2023-03-30T09:11:42.175Z,7.30
2023-03-30T09:14:23.249Z,8.20
2023-03-30T09:17:02.242Z,6.60
2023-03-30T09:19:45.462Z,8.70
2023-03-30T09:22:20.665Z,9.80
2023-03-30T09:24:54.005Z,8.60
2023-03-30T09:27:47.438Z,7.50
2023-03-30T09:30:26.947Z,7.70
2023-03-30T09:33:07.074Z,8.40
2023-03-30T09:35:43.372Z,7.50
2023-03-30T09:38:16.946Z,7.20
2023-03-30T09:43:38.273Z,7.70
2023-03-30T09:46:11.895Z,6.50
2023-03-30T09:48:47.022Z,8.00
2023-03-30T09:51:29.806Z,7.30
2023-03-30T09:54:07.517Z,8.70
2023-03-30T09:56:45.609Z,9.80
2023-03-30T09:59:33.001Z,8.10
2023-03-30T10:02:22.024Z,6.90
2023-03-30T10:05:07.004Z,5.30
2023-03-30T10:07:42.541Z,7.70
2023-03-30T10:10:33.551Z,7.30
2023-03-30T10:13:14.424Z,7.80
2023-03-30T10:15:53.943Z,5.70
2023-03-30T10:18:36.715Z,6.30
2023-03-30T10:21:27.957Z,9.20
2023-03-30T10:24:08.547Z,8.20
2023-03-30T10:26:45.075Z,7.10
2023-03-30T10:29:22.167Z,5.30
2023-03-30T10:32:00.302Z,7.00
2023-03-30T10:34:41.006Z,7.10
2023-03-30T10:37:17.930Z,8.10
2023-03-30T10:39:53.975Z,5.60
2023-03-30T10:42:31.495Z,6.40
2023-03-30T10:45:06.223Z,5.90
2023-03-30T10:47:54.278Z,5.50
2023-03-30T10:50:36.276Z,6.20
2023-03-30T10:53:21.706Z,8.30
2023-03-30T10:56:03.815Z,5.70
2023-03-30T10:58:53.226Z,5.10
2023-03-30T11:01:32.553Z,6.40
2023-03-30T11:04:22.594Z,5.70
2023-03-30T11:07:00.173Z,5.50
2023-03-30T11:09:39.898Z,4.20
2023-03-30T11:12:20.317Z,4.80
2023-03-30T11:14:58.231Z,5.60
2023-03-30T11:17:34.644Z,5.40
2023-03-30T11:20:19.182Z,5.10
2023-03-30T11:22:56.674Z,4.70
2023-03-30T11:25:35.355Z,5.50
2023-03-30T11:28:20.607Z,8.70
2023-03-30T11:31:00.186Z,5.20
2023-03-30T11:33:38.323Z,3.70
2023-03-30T11:36:19.154Z,5.10
2023-03-30T11:39:00.033Z,6.80
2023-03-30T11:41:40.396Z,5.00
2023-03-30T11:44:14.184Z,6.70
2023-03-30T11:46:55.773Z,5.00
2023-03-30T11:49:48.118Z,4.70
2023-03-30T11:52:33.196Z,5.20
2023-03-30T11:55:32.262Z,5.50
2023-03-30T11:58:24.168Z,5.70
2023-03-30T12:01:09.496Z,5.80
2023-03-30T12:03:44.712Z,3.60
2023-03-30T12:06:33.422Z,3.40
2023-03-30T12:09:25.234Z,4.30
2023-03-30T12:12:05.138Z,4.60
2023-03-30T12:14:59.748Z,3.50
2023-03-30T12:17:42.017Z,3.30
2023-03-30T12:20:27.530Z,4.50
2023-03-30T12:23:06.808Z,4.30
2023-03-30T12:26:04.984Z,5.50
2023-03-30T12:29:17.354Z,5.90
2023-03-30T12:32:21.140Z,6.10
2023-03-30T12:34:54.038Z,5.60
2023-03-30T12:37:29.558Z,5.50
2023-03-30T12:40:09.470Z,4.80
2023-03-30T12:42:54.645Z,5.90
2023-03-30T12:45:33.656Z,5.00
2023-03-30T12:48:27.904Z,4.90
2023-03-30T12:51:11.810Z,6.40
2023-03-30T12:56:45.901Z,4.60
2023-03-30T12:59:44.873Z,4.80
2023-03-30T13:02:38.925Z,6.30
2023-03-30T13:07:55.928Z,6.10
2023-03-30T13:10:44.515Z,6.00
2023-03-30T13:13:46.136Z,5.80
2023-03-30T13:16:38.898Z,13.60
2023-03-30T13:19:23.301Z,4.60
2023-03-30T13:22:19.588Z,8.00
2023-03-30T13:24:58.407Z,6.10
2023-03-30T13:27:35.835Z,4.90
2023-03-30T13:30:16.801Z,7.90
2023-03-30T13:33:07.515Z,6.60
2023-03-30T13:35:51.265Z,6.10
2023-03-30T13:38:47.642Z,5.50
2023-03-30T13:41:33.365Z,7.80
2023-03-30T13:44:29.173Z,7.50
2023-03-30T13:47:09.252Z,5.90
2023-03-30T13:49:51.550Z,5.20
2023-03-30T13:52:33.359Z,6.50
2023-03-30T13:55:12.082Z,6.70
2023-03-30T13:57:46.015Z,9.50
2023-03-30T14:00:40.628Z,19.70
2023-03-30T14:03:31.866Z,12.20
2023-03-30T14:06:08.322Z,8.20
2023-03-30T14:08:43.071Z,7.30
2023-03-30T14:11:21.591Z,11.10
2023-03-30T14:13:57.144Z,77.90
2023-03-30T14:16:35.381Z,21.10
2023-03-30T14:19:14.928Z,10.20
2023-03-30T14:21:49.286Z,11.70
2023-03-30T14:24:30.083Z,15.60
2023-03-30T14:27:14.933Z,9.20
2023-03-30T14:29:50.468Z,9.40
2023-03-30T14:32:25.669Z,13.30
2023-03-30T14:34:58.822Z,7.80
2023-03-30T14:37:34.045Z,9.80
2023-03-30T14:40:16.154Z,9.30
2023-03-30T14:42:48.932Z,10.60
2023-03-30T14:45:22.765Z,8.20
2023-03-30T14:47:57.032Z,9.20
2023-03-30T14:50:30.719Z,7.00
2023-03-30T14:53:04.444Z,6.50
2023-03-30T14:55:38.875Z,7.10
2023-03-30T14:58:16.322Z,12.20
2023-03-30T15:00:49.016Z,6.80
2023-03-30T15:03:32.789Z,10.70
2023-03-30T15:06:09.835Z,9.70
2023-03-30T15:08:47.853Z,10.80
2023-03-30T15:11:24.337Z,9.40
2023-03-30T15:13:59.546Z,8.90
2023-03-30T15:16:36.168Z,6.70
2023-03-30T15:19:14.264Z,7.80
2023-03-30T15:21:47.022Z,7.70
2023-03-30T15:24:23.729Z,9.60
2023-03-30T15:27:00.904Z,9.90
2023-03-30T15:29:34.649Z,10.40
2023-03-30T15:35:04.100Z,10.10
2023-03-30T15:37:37.578Z,11.20
2023-03-30T15:43:21.057Z,13.70
2023-03-30T15:45:56.522Z,14.20
2023-03-30T15:48:34.753Z,12.60
2023-03-30T15:51:11.472Z,11.90
2023-03-30T15:53:55.058Z,10.50
2023-03-30T15:56:35.359Z,14.90
2023-03-30T15:59:13.699Z,8.30
2023-03-30T16:01:49.832Z,12.30
2023-03-30T16:04:24.516Z,12.60
2023-03-30T16:06:57.241Z,10.40
2023-03-30T16:09:30.388Z,11.50
2023-03-30T16:12:03.265Z,9.80
2023-03-30T16:14:37.064Z,9.40
2023-03-30T16:17:13.407Z,12.70
2023-03-30T16:19:46.529Z,11.40
2023-03-30T16:22:19.378Z,15.00
2023-03-30T16:24:53.643Z,12.20
2023-03-30T16:27:26.476Z,9.80
2023-03-30T16:29:59.359Z,15.60
2023-03-30T16:32:35.644Z,13.00
2023-03-30T16:35:09.609Z,10.60
2023-03-30T16:37:42.467Z,11.10
2023-03-30T16:40:27.569Z,11.20
2023-03-30T16:43:03.327Z,13.70
2023-03-30T16:45:36.910Z,27.40
2023-03-30T16:48:11.448Z,13.30
2023-03-30T16:50:47.975Z,12.50
2023-03-30T16:53:20.819Z,14.10
2023-03-30T16:55:54.056Z,13.40
2023-03-30T16:58:26.687Z,16.10
2023-03-30T17:01:04.535Z,11.90
2023-03-30T17:03:37.795Z,16.20
2023-03-30T17:06:11.407Z,27.20
2023-03-30T17:11:17.449Z,14.50
2023-03-30T17:13:51.466Z,11.50
2023-03-30T17:16:27.643Z,15.10
2023-03-30T17:19:01.480Z,13.80
2023-03-30T17:21:35.945Z,14.50
2023-03-30T17:24:10.614Z,20.20
2023-03-30T17:26:46.311Z,16.00
2023-03-30T17:29:19.514Z,14.40
2023-03-30T17:31:52.735Z,15.60
2023-03-30T17:34:25.433Z,14.50
2023-03-30T17:36:58.471Z,21.90
2023-03-30T17:39:33.015Z,21.50
2023-03-30T17:42:06.303Z,21.90
2023-03-30T17:44:39.267Z,16.80
2023-03-30T17:47:12.483Z,19.50
2023-03-30T17:52:17.219Z,10.50
2023-03-30T17:54:52.065Z,11.30
2023-03-30T17:57:26.457Z,15.50
2023-03-30T17:59:59.885Z,16.70
2023-03-30T18:02:32.757Z,16.00
2023-03-30T18:05:05.783Z,14.50
2023-03-30T18:07:41.259Z,15.50
2023-03-30T18:10:27.134Z,15.30
2023-03-30T18:12:59.965Z,12.80
2023-03-30T18:15:33.398Z,16.10
2023-03-30T18:18:06.875Z,14.00
2023-03-30T18:20:43.377Z,14.10
2023-03-30T18:23:16.607Z,15.00
2023-03-30T18:25:49.556Z,13.60
2023-03-30T18:28:24.029Z,15.10
2023-03-30T18:30:59.195Z,14.30
2023-03-30T18:33:33.486Z,18.70
2023-03-30T18:36:08.563Z,17.90
2023-03-30T18:38:41.724Z,14.80
2023-03-30T18:41:16.185Z,14.60
2023-03-30T18:43:48.852Z,12.10
2023-03-30T18:46:21.714Z,15.60
2023-03-30T18:48:54.549Z,14.40
2023-03-30T18:51:30.874Z,13.20
2023-03-30T18:54:03.563Z,15.90
2023-03-30T18:56:38.291Z,13.30
2023-03-30T18:59:12.997Z,16.10
2023-03-30T19:01:46.386Z,15.40
2023-03-30T19:04:19.011Z,13.20
2023-03-30T19:06:53.456Z,14.40
2023-03-30T19:09:40.234Z,13.60
2023-03-30T19:12:16.702Z,12.50
2023-03-30T19:17:20.443Z,11.80
2023-03-30T19:19:55.345Z,15.80
2023-03-30T19:22:28.274Z,13.10
2023-03-30T19:25:01.846Z,12.80
2023-03-30T19:27:34.843Z,12.10
2023-03-30T19:30:11.894Z,18.40
2023-03-30T19:32:46.101Z,16.10
2023-03-30T19:35:19.742Z,16.20
2023-03-30T19:37:52.538Z,15.10
2023-03-30T19:40:26.021Z,13.40
2023-03-30T19:43:04.796Z,12.70
2023-03-30T19:45:39.048Z,16.10
2023-03-30T19:48:12.484Z,13.30
2023-03-30T19:50:46.319Z,15.00
2023-03-30T19:53:19.078Z,15.30
2023-03-30T19:55:51.822Z,12.80
2023-03-30T19:58:24.750Z,14.60
2023-03-30T20:00:58.225Z,14.10
2023-03-30T20:03:31.798Z,15.10
2023-03-30T20:06:05.057Z,13.60
2023-03-30T20:08:38.116Z,16.00
2023-03-30T20:11:12.943Z,13.90
2023-03-30T20:13:48.244Z,17.30
2023-03-30T20:16:22.888Z,17.10
2023-03-30T20:18:57.817Z,14.00
2023-03-30T20:21:31.600Z,15.40
2023-03-30T20:24:08.458Z,13.00
2023-03-30T20:26:43.065Z,15.30
2023-03-30T20:29:15.814Z,16.10
2023-03-30T20:31:49.639Z,15.60
2023-03-30T20:34:24.735Z,18.00
2023-03-30T20:36:57.917Z,15.10
2023-03-30T20:39:31.558Z,14.50
2023-03-30T20:42:08.737Z,16.40
2023-03-30T20:44:41.655Z,14.70
2023-03-30T20:47:18.019Z,15.30
2023-03-30T20:49:51.148Z,17.10
2023-03-30T20:52:24.399Z,15.90
2023-03-30T20:54:58.007Z,14.00
2023-03-30T20:57:32.454Z,13.90
2023-03-30T21:00:07.762Z,16.50
2023-03-30T21:02:41.195Z,14.10
2023-03-30T21:05:16.602Z,16.40
2023-03-30T21:07:49.862Z,13.30
2023-03-30T21:10:22.693Z,16.30
2023-03-30T21:12:55.360Z,14.40
2023-03-30T21:15:28.002Z,16.40
2023-03-30T21:18:02.412Z,12.10
2023-03-30T21:20:35.262Z,12.40
2023-03-30T21:23:08.119Z,12.50
2023-03-30T21:25:43.110Z,13.40
2023-03-30T21:28:16.027Z,12.30
2023-03-30T21:30:49.132Z,13.50
2023-03-30T21:33:22.334Z,12.60
2023-03-30T21:35:56.027Z,16.20
2023-03-30T21:38:30.731Z,15.10
2023-03-30T21:41:06.759Z,14.10
2023-03-30T21:43:43.306Z,11.10
2023-03-30T21:46:18.410Z,13.70
2023-03-30T21:48:53.949Z,14.00
2023-03-30T21:51:29.371Z,14.70
2023-03-30T21:54:02.521Z,12.30
2023-03-30T21:56:34.923Z,14.10
2023-03-30T21:59:08.438Z,12.70
2023-03-30T22:04:13.235Z,11.20
2023-03-30T22:06:46.236Z,11.90
2023-03-30T22:09:19.234Z,12.10
2023-03-30T22:11:54.069Z,11.10
2023-03-30T22:14:26.759Z,13.80
2023-03-30T22:17:03.384Z,14.70
2023-03-30T22:19:37.549Z,11.30
2023-03-30T22:22:10.115Z,12.50
2023-03-30T22:24:42.866Z,12.20
2023-03-30T22:27:16.788Z,12.30
2023-03-30T22:29:50.074Z,12.30
2023-03-30T22:32:22.867Z,11.00
2023-03-30T22:34:56.361Z,11.30
2023-03-30T22:37:29.486Z,13.00
2023-03-30T22:40:02.138Z,14.30
2023-03-30T22:42:36.257Z,13.80
2023-03-30T22:45:11.988Z,11.00
2023-03-30T22:47:44.938Z,12.60
2023-03-30T22:50:18.456Z,12.40
2023-03-30T22:52:51.019Z,14.70
2023-03-30T22:55:24.528Z,11.60
2023-03-30T22:57:58.304Z,14.80
2023-03-30T23:03:02.052Z,15.30
2023-03-30T23:05:35.554Z,11.50
2023-03-30T23:10:39.832Z,16.00
2023-03-30T23:13:12.618Z,15.40
2023-03-30T23:15:48.999Z,14.80
2023-03-30T23:18:21.671Z,16.70
2023-03-30T23:20:58.430Z,18.20
2023-03-30T23:23:31.414Z,20.30
2023-03-30T23:26:09.732Z,20.10
2023-03-30T23:28:45.613Z,19.60
2023-03-30T23:31:19.638Z,21.90
2023-03-30T23:33:53.170Z,23.00
2023-03-30T23:36:28.072Z,24.50
2023-03-30T23:39:00.703Z,21.80
2023-03-30T23:41:33.585Z,25.00
2023-03-30T23:44:06.453Z,24.00
2023-03-30T23:46:39.736Z,21.60
2023-03-30T23:49:12.547Z,24.60
2023-03-30T23:51:45.396Z,25.40
2023-03-30T23:54:18.686Z,24.70
2023-03-30T23:56:57.965Z,24.10
2023-03-30T23:59:30.885Z,22.10
